Time;durP1;ratioP1;P1;durP2;ratioP2;P2;SDS_P1;SDS_P2;PMS_P1;PMS_P2;Temp;Humidity;BMP_temperature;BMP_pressure;BME280_temperature;BME280_humidity;BME280_pressure;Samples;Min_cycle;Max_cycle;Signal;HPM_P1;HPM_P2
2023/06/15 00:01:55;;;;;;;1.65;0.30;;;16.80;99.90;;;;;;5008424;28;20454;-82
2023/06/15 00:04:20;;;;;;;1.80;0.22;;;16.70;99.90;;;;;;4991783;28;20068;-81
2023/06/15 00:06:46;;;;;;;0.90;0.28;;;16.60;99.90;;;;;;5010015;28;20057;-81
2023/06/15 00:09:12;;;;;;;0.80;0.30;;;16.60;99.90;;;;;;5005286;28;20478;-80
2023/06/15 00:11:38;;;;;;;2.08;0.30;;;16.50;99.90;;;;;;5008917;28;20022;-80
2023/06/15 00:14:07;;;;;;;1.90;0.30;;;16.50;99.90;;;;;;5001540;28;20117;-81
2023/06/15 00:16:33;;;;;;;2.33;0.40;;;16.60;99.90;;;;;;4989036;28;20034;-80
2023/06/15 00:19:01;;;;;;;0.70;0.30;;;16.50;99.90;;;;;;5008838;28;20080;-79
2023/06/15 00:21:30;;;;;;;0.82;0.30;;;16.50;99.90;;;;;;4991021;28;20414;-80
2023/06/15 00:23:56;;;;;;;1.38;0.30;;;16.50;99.90;;;;;;5021123;28;20028;-80
2023/06/15 00:26:21;;;;;;;2.10;0.30;;;16.40;99.90;;;;;;5019900;28;20049;-80
2023/06/15 00:28:47;;;;;;;1.30;0.30;;;16.30;99.90;;;;;;5014733;28;20401;-79
2023/06/15 00:31:13;;;;;;;0.70;0.30;;;16.30;99.90;;;;;;4989595;28;20037;-80
2023/06/15 00:33:39;;;;;;;1.00;0.30;;;16.40;99.90;;;;;;5034110;28;20053;-80
2023/06/15 00:36:07;;;;;;;0.80;0.30;;;16.40;99.90;;;;;;5041090;28;20028;-82
2023/06/15 00:38:33;;;;;;;1.67;0.40;;;16.30;99.90;;;;;;5007487;28;20022;-82
2023/06/15 00:40:59;;;;;;;1.23;0.40;;;16.20;99.90;;;;;;4991793;28;20401;-82
2023/06/15 00:43:25;;;;;;;1.98;0.40;;;16.20;99.90;;;;;;5018030;28;20156;-82
2023/06/15 00:45:51;;;;;;;1.90;0.47;;;16.20;99.90;;;;;;4988858;28;20574;-82
2023/06/15 00:48:16;;;;;;;1.10;0.50;;;16.20;99.90;;;;;;4991071;28;20117;-82
2023/06/15 00:50:42;;;;;;;2.10;0.45;;;16.20;99.90;;;;;;5008010;28;20117;-82
2023/06/15 00:53:10;;;;;;;1.77;0.43;;;16.20;99.90;;;;;;5010262;28;20190;-82
2023/06/15 00:55:37;;;;;;;1.83;0.40;;;16.20;99.90;;;;;;4988103;28;20026;-82
2023/06/15 00:58:03;;;;;;;0.90;0.40;;;16.10;99.90;;;;;;5033049;28;20029;-81
2023/06/15 01:00:36;;;;;;;1.10;0.50;;;16.00;99.90;;;;;;5040999;28;20092;-83
2023/06/15 01:03:04;;;;;;;1.83;0.40;;;16.10;99.90;;;;;;5022976;28;20025;-82
2023/06/15 01:05:34;;;;;;;1.58;0.40;;;16.20;99.90;;;;;;4990015;28;20061;-82
2023/06/15 01:08:05;;;;;;;0.90;0.40;;;16.10;99.90;;;;;;5003052;28;20033;-82
2023/06/15 01:10:34;;;;;;;1.08;0.40;;;16.00;99.90;;;;;;5041042;28;20025;-82
2023/06/15 01:13:03;;;;;;;1.10;0.40;;;16.00;99.90;;;;;;5008622;28;20030;-82
2023/06/15 01:15:30;;;;;;;;;;;16.00;99.90;;;;;;5015243;28;20026;-82
2023/06/15 01:17:59;;;;;;;1.20;0.40;;;16.00;99.90;;;;;;5007765;28;19946;-82
2023/06/15 01:20:30;;;;;;;1.90;0.50;;;16.00;99.90;;;;;;5003373;28;20112;-82
2023/06/15 01:23:07;;;;;;;1.60;0.70;;;16.00;99.90;;;;;;5002419;28;20026;-82
2023/06/15 01:25:53;;;;;;;1.77;0.50;;;15.90;99.90;;;;;;5002456;28;20402;-83
2023/06/15 01:28:20;;;;;;;1.40;0.50;;;15.80;99.90;;;;;;4997581;28;20045;-80
2023/06/15 01:30:55;;;;;;;1.13;0.43;;;15.70;99.90;;;;;;5036587;28;20194;-80
2023/06/15 01:33:22;;;;;;;1.33;0.50;;;15.50;99.90;;;;;;4987478;28;20133;-80
2023/06/15 01:35:47;;;;;;;1.30;0.60;;;15.30;99.90;;;;;;5005238;28;20022;-81
2023/06/15 01:38:15;;;;;;;2.17;0.50;;;15.30;99.90;;;;;;5003546;28;20402;-79
2023/06/15 01:40:44;;;;;;;1.55;0.50;;;15.30;99.90;;;;;;4989564;28;20022;-82
2023/06/15 01:43:13;;;;;;;2.78;0.60;;;15.30;99.90;;;;;;5004299;28;20030;-81
2023/06/15 01:45:43;;;;;;;1.77;0.60;;;15.20;99.90;;;;;;4985876;28;20026;-79
2023/06/15 01:48:10;;;;;;;1.42;0.65;;;15.10;99.90;;;;;;5014323;28;20036;-80
2023/06/15 01:50:37;;;;;;;0.93;0.47;;;15.10;99.90;;;;;;5022582;28;20030;-80
2023/06/15 01:53:03;;;;;;;1.60;0.60;;;15.10;99.90;;;;;;4989076;28;20038;-80
2023/06/15 01:55:29;;;;;;;1.75;0.70;;;15.10;99.90;;;;;;5020453;28;20030;-80
2023/06/15 01:57:55;;;;;;;1.58;0.63;;;15.20;99.90;;;;;;4988134;28;20026;-81
2023/06/15 02:00:22;;;;;;;1.33;0.60;;;15.10;99.90;;;;;;4987767;28;20026;-80
2023/06/15 02:02:48;;;;;;;2.00;0.60;;;15.20;99.90;;;;;;5001680;28;20030;-80
2023/06/15 02:05:14;;;;;;;1.50;0.63;;;15.20;99.90;;;;;;5003186;28;20132;-80
2023/06/15 02:07:40;;;;;;;1.73;0.80;;;15.10;99.90;;;;;;5035313;28;20034;-80
2023/06/15 02:10:07;;;;;;;1.30;0.60;;;15.10;99.90;;;;;;4998654;28;20025;-82
2023/06/15 02:12:33;;;;;;;1.40;0.70;;;15.10;99.90;;;;;;5006619;28;20125;-82
2023/06/15 02:15:04;;;;;;;2.15;0.80;;;15.10;99.90;;;;;;4988855;28;20050;-81
2023/06/15 02:17:33;;;;;;;2.17;1.13;;;15.00;99.90;;;;;;5019354;28;20475;-82
2023/06/15 02:19:59;;;;;;;1.90;0.60;;;14.80;99.90;;;;;;5005636;28;20044;-82
2023/06/15 02:22:27;;;;;;;3.75;1.38;;;14.80;99.90;;;;;;5021719;28;20038;-82
2023/06/15 02:24:53;;;;;;;2.03;0.70;;;14.70;99.90;;;;;;5020504;28;20446;-82
2023/06/15 02:27:18;;;;;;;1.33;0.70;;;14.70;99.90;;;;;;4987992;28;20030;-82
2023/06/15 02:29:44;;;;;;;2.83;0.80;;;14.70;99.90;;;;;;5037256;28;20029;-82
2023/06/15 02:32:31;;;;;;;3.17;0.70;;;14.70;99.90;;;;;;5002769;28;20034;-82
2023/06/15 02:34:58;;;;;;;1.90;0.75;;;14.60;99.90;;;;;;5017274;28;20089;-83
2023/06/15 02:37:24;;;;;;;2.55;0.70;;;14.50;99.90;;;;;;4987089;28;20057;-82
2023/06/15 02:39:50;;;;;;;1.58;0.98;;;14.50;99.90;;;;;;4987884;28;20560;-82
2023/06/15 02:42:16;;;;;;;1.77;0.73;;;14.50;99.90;;;;;;5007405;28;20116;-82
2023/06/15 02:44:41;;;;;;;1.75;0.85;;;14.50;99.90;;;;;;5007051;28;20037;-82
2023/06/15 02:47:07;;;;;;;1.73;0.80;;;14.50;99.90;;;;;;4986148;28;20061;-82
2023/06/15 02:49:33;;;;;;;2.00;1.08;;;14.40;99.90;;;;;;5001002;28;20651;-80
2023/06/15 02:51:59;;;;;;;1.25;0.65;;;14.40;99.90;;;;;;5006268;28;20034;-79
2023/06/15 02:54:26;;;;;;;1.60;0.60;;;14.40;99.90;;;;;;5017952;28;20475;-80
2023/06/15 02:56:53;;;;;;;1.60;1.10;;;14.40;99.90;;;;;;5005815;28;20022;-80
2023/06/15 02:59:25;;;;;;;2.20;0.93;;;14.40;99.90;;;;;;5006119;28;20026;-80
2023/06/15 03:01:56;;;;;;;3.60;1.05;;;14.30;99.90;;;;;;4999606;28;20030;-81
2023/06/15 03:04:23;;;;;;;2.00;1.00;;;14.30;99.90;;;;;;4986623;28;20470;-80
2023/06/15 03:06:52;;;;;;;1.88;0.88;;;14.20;99.90;;;;;;5036739;28;20033;-80
2023/06/15 03:09:26;;;;;;;2.90;1.17;;;14.20;99.90;;;;;;5036876;28;20030;-80
2023/06/15 03:11:52;;;;;;;1.70;0.80;;;14.10;99.90;;;;;;5006518;28;20026;-80
2023/06/15 03:14:21;;;;;;;2.17;1.15;;;14.10;99.90;;;;;;4987459;28;20081;-80
2023/06/15 03:16:47;;;;;;;1.90;0.85;;;14.00;99.90;;;;;;5037883;28;20471;-80
2023/06/15 03:19:17;;;;;;;1.98;0.90;;;14.10;99.90;;;;;;5006170;28;20083;-81
2023/06/15 03:21:43;;;;;;;2.92;1.00;;;14.00;99.90;;;;;;5006269;28;20053;-80
2023/06/15 03:24:09;;;;;;;2.20;0.73;;;14.00;99.90;;;;;;5007309;28;20475;-80
2023/06/15 03:26:36;;;;;;;2.72;0.77;;;14.10;99.90;;;;;;5037308;28;20494;-80
2023/06/15 03:29:03;;;;;;;2.10;0.70;;;14.10;99.90;;;;;;5010240;28;20037;-80
2023/06/15 03:31:33;;;;;;;3.05;0.90;;;14.00;99.90;;;;;;5037713;28;20092;-80
2023/06/15 03:34:00;;;;;;;1.97;0.80;;;14.00;99.90;;;;;;4989392;28;20045;-80
2023/06/15 03:36:29;;;;;;;1.85;0.98;;;14.10;99.90;;;;;;5004795;28;20026;-80
2023/06/15 03:38:57;;;;;;;;;;;14.20;99.90;;;;;;5006944;28;20040;-80
2023/06/15 03:41:23;;;;;;;1.38;0.70;;;14.10;99.90;;;;;;5007065;28;19910;-81
2023/06/15 03:43:49;;;;;;;3.28;1.10;;;14.20;99.90;;;;;;5007447;28;20030;-80
2023/06/15 03:46:16;;;;;;;3.58;0.90;;;14.10;99.90;;;;;;5005527;28;20121;-80
2023/06/15 03:48:42;;;;;;;3.80;0.88;;;14.10;99.90;;;;;;5008023;28;20030;-81
2023/06/15 03:51:08;;;;;;;3.28;1.00;;;14.20;99.90;;;;;;5024268;28;20070;-80
2023/06/15 03:53:35;;;;;;;1.60;0.80;;;14.30;99.90;;;;;;5002507;28;20084;-81
2023/06/15 03:56:01;;;;;;;1.85;0.93;;;14.30;99.90;;;;;;5017716;28;20391;-80
2023/06/15 03:58:26;;;;;;;2.63;0.80;;;14.30;99.90;;;;;;4989158;28;20034;-79
2023/06/15 04:00:56;;;;;;;2.80;1.00;;;14.30;99.90;;;;;;5038926;28;20050;-82
2023/06/15 04:03:21;;;;;;;2.05;0.90;;;14.40;99.90;;;;;;5009949;28;20065;-83
2023/06/15 04:05:48;;;;;;;2.03;1.02;;;14.50;99.90;;;;;;5005624;28;20068;-82
2023/06/15 04:08:14;;;;;;;3.00;0.80;;;14.50;99.90;;;;;;5008932;28;20038;-82
2023/06/15 04:10:40;;;;;;;2.05;0.93;;;14.50;99.90;;;;;;4988419;28;20028;-82
2023/06/15 04:13:06;;;;;;;1.77;0.90;;;14.60;99.90;;;;;;4988543;28;20037;-81
2023/06/15 04:15:32;;;;;;;1.98;1.17;;;14.60;99.90;;;;;;4988272;28;20033;-80
2023/06/15 04:18:00;;;;;;;2.13;0.82;;;14.70;99.90;;;;;;4987725;28;20517;-80
2023/06/15 04:20:30;;;;;;;2.00;1.13;;;14.70;99.90;;;;;;4989415;28;20025;-80
2023/06/15 04:22:59;;;;;;;4.15;1.92;;;14.80;99.90;;;;;;5005570;28;20018;-80
2023/06/15 04:25:28;;;;;;;1.97;0.93;;;14.80;99.90;;;;;;5008507;28;20540;-79
2023/06/15 04:27:55;;;;;;;4.15;1.40;;;14.90;99.90;;;;;;4988639;28;20026;-79
2023/06/15 04:30:24;;;;;;;2.30;0.90;;;15.00;99.90;;;;;;5008182;28;20044;-81
2023/06/15 04:32:57;;;;;;;2.00;0.98;;;15.10;99.90;;;;;;5036322;28;20034;-79
2023/06/15 04:35:24;;;;;;;2.45;1.00;;;15.20;99.90;;;;;;5006956;28;20025;-80
2023/06/15 04:37:52;;;;;;;3.15;0.90;;;15.30;99.90;;;;;;4989340;28;20087;-80
2023/06/15 04:40:20;;;;;;;2.33;1.00;;;15.40;99.90;;;;;;4986391;28;20052;-81
2023/06/15 04:42:46;;;;;;;2.25;1.05;;;15.50;99.90;;;;;;4991175;28;20057;-79
2023/06/15 04:45:12;;;;;;;2.10;0.85;;;15.60;99.90;;;;;;5011852;28;20096;-78
2023/06/15 04:47:38;;;;;;;2.28;1.33;;;15.80;99.90;;;;;;4994319;28;20038;-79
2023/06/15 04:50:05;;;;;;;4.22;1.10;;;15.90;99.90;;;;;;4978576;28;20033;-79
2023/06/15 04:52:31;;;;;;;2.25;0.85;;;16.00;99.90;;;;;;4994613;28;20046;-79
2023/06/15 04:54:57;;;;;;;2.45;1.20;;;16.20;99.90;;;;;;4978550;28;20401;-79
2023/06/15 04:57:23;;;;;;;2.45;1.25;;;16.40;99.90;;;;;;4992913;28;20152;-81
2023/06/15 04:59:49;;;;;;;1.55;0.60;;;16.60;99.90;;;;;;5018319;28;20157;-80
2023/06/15 05:02:15;;;;;;;3.20;0.90;;;16.60;99.90;;;;;;4987033;28;20120;-82
2023/06/15 05:04:41;;;;;;;2.25;0.90;;;16.80;99.90;;;;;;4996018;28;20026;-79
2023/06/15 05:07:07;;;;;;;4.03;1.25;;;16.80;99.90;;;;;;5010784;28;20030;-80
2023/06/15 05:09:37;;;;;;;3.42;1.40;;;16.90;99.90;;;;;;4992688;28;20689;-79
2023/06/15 05:12:08;;;;;;;2.75;1.40;;;17.20;99.90;;;;;;4981267;28;20084;-79
2023/06/15 05:14:34;;;;;;;2.25;0.82;;;17.20;99.90;;;;;;4986214;28;20033;-80
2023/06/15 05:17:03;;;;;;;3.22;0.98;;;17.20;99.90;;;;;;5033925;28;20031;-80
2023/06/15 05:19:32;;;;;;;3.45;1.08;;;17.50;99.90;;;;;;5018765;28;20398;-79
2023/06/15 05:22:00;;;;;;;2.95;1.17;;;17.70;99.90;;;;;;4986595;28;20050;-80
2023/06/15 05:24:27;;;;;;;2.10;0.90;;;17.80;99.90;;;;;;5037525;28;20030;-80
2023/06/15 05:26:52;;;;;;;4.65;1.00;;;17.90;99.90;;;;;;5005227;28;20033;-80
2023/06/15 05:29:20;;;;;;;1.73;0.90;;;18.00;99.90;;;;;;5000665;28;20618;-80
2023/06/15 05:31:46;;;;;;;3.00;0.82;;;18.10;99.90;;;;;;5006693;28;20026;-80
2023/06/15 05:34:13;;;;;;;2.65;0.98;;;18.20;99.90;;;;;;5015237;28;20030;-80
2023/06/15 05:36:39;;;;;;;3.25;0.90;;;18.30;99.90;;;;;;5031146;28;20033;-77
2023/06/15 05:39:06;;;;;;;2.45;1.33;;;18.50;99.90;;;;;;5007332;28;20026;-78
2023/06/15 05:41:33;;;;;;;3.28;1.27;;;18.50;99.90;;;;;;5005461;28;20188;-77
2023/06/15 05:44:01;;;;;;;2.67;1.10;;;18.40;99.90;;;;;;5015406;28;20032;-81
2023/06/15 05:46:26;;;;;;;2.45;0.90;;;18.50;99.90;;;;;;5019555;28;20589;-80
2023/06/15 05:48:52;;;;;;;3.85;1.17;;;18.70;99.90;;;;;;5019188;28;20026;-81
2023/06/15 05:51:18;;;;;;;2.67;1.15;;;18.70;99.90;;;;;;4989099;28;20029;-80
2023/06/15 05:53:44;;;;;;;4.18;1.05;;;18.90;99.90;;;;;;4986137;28;20040;-81
2023/06/15 05:56:10;;;;;;;2.15;1.00;;;19.00;99.90;;;;;;5015470;28;20033;-81
2023/06/15 05:58:36;;;;;;;3.08;1.17;;;19.10;99.90;;;;;;5001984;28;20096;-80
2023/06/15 06:01:03;;;;;;;2.70;1.13;;;19.30;99.90;;;;;;5032441;28;20022;-79
2023/06/15 06:03:29;;;;;;;1.88;1.02;;;19.30;99.90;;;;;;5031091;28;20030;-80
2023/06/15 06:05:54;;;;;;;2.47;1.20;;;19.40;99.90;;;;;;4986634;28;20544;-80
2023/06/15 06:08:21;;;;;;;3.97;1.30;;;19.70;99.90;;;;;;5002959;28;20026;-79
2023/06/15 06:10:47;;;;;;;5.85;1.13;;;19.90;99.90;;;;;;5018853;28;20022;-80
2023/06/15 06:13:39;;;;;;;3.17;1.02;;;20.10;99.90;;;;;;5000686;28;20067;-80
2023/06/15 06:16:04;;;;;;;2.20;0.93;;;20.10;99.90;;;;;;5035423;28;20026;-81
2023/06/15 06:18:30;;;;;;;2.50;1.20;;;20.30;99.90;;;;;;5002505;28;20053;-80
2023/06/15 06:20:56;;;;;;;3.10;1.05;;;20.40;99.90;;;;;;5002038;28;20049;-80
2023/06/15 06:23:22;;;;;;;4.28;1.38;;;20.40;99.90;;;;;;5003569;28;20030;-80
2023/06/15 06:25:48;;;;;;;2.00;1.20;;;20.40;99.90;;;;;;5005300;28;20018;-80
2023/06/15 06:28:14;;;;;;;4.05;1.55;;;20.80;99.90;;;;;;5006850;28;20420;-81
2023/06/15 06:30:39;;;;;;;4.55;1.17;;;20.70;99.90;;;;;;5004144;28;20034;-80
2023/06/15 06:33:05;;;;;;;3.75;1.80;;;20.70;99.90;;;;;;5034500;28;20638;-82
2023/06/15 06:35:31;;;;;;;2.95;1.35;;;20.70;99.90;;;;;;5003862;28;20058;-80
2023/06/15 06:37:56;;;;;;;2.65;1.17;;;20.80;99.90;;;;;;5015140;28;20036;-80
2023/06/15 06:40:22;;;;;;;2.70;1.42;;;21.30;99.90;;;;;;5003191;28;20022;-80
2023/06/15 06:42:48;;;;;;;3.50;1.23;;;21.40;99.90;;;;;;5019489;28;20023;-81
2023/06/15 06:45:13;;;;;;;4.55;1.63;;;21.40;99.90;;;;;;5036867;28;20087;-80
2023/06/15 06:47:39;;;;;;;3.17;1.60;;;21.40;99.90;;;;;;5005928;28;20152;-80
2023/06/15 06:50:06;;;;;;;3.78;1.30;;;21.90;99.90;;;;;;4987749;28;20038;-81
2023/06/15 06:52:32;;;;;;;3.88;0.82;;;22.00;99.90;;;;;;5002988;28;20041;-80
2023/06/15 06:54:58;;;;;;;4.47;1.30;;;22.40;99.90;;;;;;5006345;28;20026;-81
2023/06/15 06:57:23;;;;;;;3.60;1.40;;;22.40;99.90;;;;;;5037138;28;20061;-80
2023/06/15 06:59:50;;;;;;;2.95;1.02;;;22.50;99.90;;;;;;5007983;28;20119;-81
2023/06/15 07:02:16;;;;;;;2.78;1.45;;;22.60;99.90;;;;;;5005777;28;20594;-76
2023/06/15 07:04:41;;;;;;;3.30;1.20;;;22.70;99.90;;;;;;5040227;28;20130;-78
2023/06/15 07:07:07;;;;;;;4.20;1.27;;;22.60;99.90;;;;;;4990740;28;20050;-78
2023/06/15 07:09:33;;;;;;;4.07;2.20;;;22.60;99.90;;;;;;4993321;28;20487;-79
2023/06/15 07:11:58;;;;;;;4.32;1.50;;;22.20;99.90;;;;;;4993770;28;20111;-79
2023/06/15 07:14:24;;;;;;;2.65;1.08;;;22.60;99.90;;;;;;4989067;28;20507;-80
2023/06/15 07:16:50;;;;;;;3.03;1.13;;;22.90;99.90;;;;;;5020941;28;20027;-79
2023/06/15 07:19:16;;;;;;;2.25;1.40;;;23.10;99.90;;;;;;5008575;28;20030;-79
2023/06/15 07:21:42;;;;;;;1.90;0.90;;;23.30;99.90;;;;;;5008825;28;20077;-79
2023/06/15 07:24:07;;;;;;;3.40;1.00;;;23.60;99.90;;;;;;5009529;28;20029;-80
2023/06/15 07:26:33;;;;;;;2.97;0.90;;;23.10;99.90;;;;;;5008724;28;20026;-79
2023/06/15 07:28:58;;;;;;;2.50;1.10;;;23.50;99.90;;;;;;5037985;28;20490;-79
2023/06/15 07:31:24;;;;;;;4.72;2.20;;;23.80;99.90;;;;;;5004616;28;20557;-79
2023/06/15 07:33:53;;;;;;;3.42;1.30;;;23.10;99.90;;;;;;5038124;28;20038;-78
2023/06/15 07:36:19;;;;;;;3.08;1.50;;;23.40;99.90;;;;;;5001994;28;20061;-79
2023/06/15 07:38:45;;;;;;;2.60;1.13;;;23.30;99.90;;;;;;5038450;28;20057;-79
2023/06/15 07:41:11;;;;;;;3.13;1.02;;;23.90;99.90;;;;;;5007374;28;20454;-79
2023/06/15 07:43:36;;;;;;;3.05;1.00;;;24.50;99.90;;;;;;5036034;28;20390;-79
2023/06/15 07:46:02;;;;;;;3.53;1.20;;;24.80;99.90;;;;;;5005781;28;20050;-79
2023/06/15 07:48:28;;;;;;;3.10;1.58;;;24.40;99.90;;;;;;5006661;28;20113;-79
2023/06/15 07:50:53;;;;;;;4.45;1.48;;;24.30;99.90;;;;;;5034302;28;20492;-79
2023/06/15 07:53:19;;;;;;;3.33;1.30;;;24.30;99.90;;;;;;5019940;28;20120;-79
2023/06/15 07:55:45;;;;;;;2.67;1.00;;;24.90;99.90;;;;;;5007569;28;20529;-78
2023/06/15 07:58:10;;;;;;;3.33;1.38;;;24.90;99.90;;;;;;5006101;28;20037;-79
2023/06/15 08:00:36;;;;;;;2.88;1.77;;;24.50;99.90;;;;;;5008090;28;20029;-79
2023/06/15 08:03:02;;;;;;;4.05;1.52;;;24.70;99.90;;;;;;5003181;28;20696;-80
2023/06/15 08:05:27;;;;;;;5.70;2.03;;;24.10;99.90;;;;;;5008321;28;20084;-79
2023/06/15 08:07:53;;;;;;;2.35;1.15;;;24.30;99.90;;;;;;4987869;28;20115;-79
2023/06/15 08:10:19;;;;;;;3.88;1.77;;;24.90;99.90;;;;;;4986315;28;20030;-79
2023/06/15 08:12:44;;;;;;;2.90;1.25;;;24.60;99.90;;;;;;5005524;28;20039;-78
2023/06/15 08:15:10;;;;;;;3.05;1.42;;;24.80;99.90;;;;;;5005985;28;20026;-79
2023/06/15 08:17:36;;;;;;;3.70;1.58;;;24.50;99.90;;;;;;5006301;28;20105;-79
2023/06/15 08:20:07;;;;;;;2.45;0.90;;;24.50;99.90;;;;;;5019391;28;20026;-79
2023/06/15 08:22:32;;;;;;;1.70;0.65;;;24.90;99.90;;;;;;5019178;28;20046;-79
2023/06/15 08:24:58;;;;;;;1.77;0.75;;;25.70;99.90;;;;;;4991682;28;20030;-81
2023/06/15 08:27:24;;;;;;;2.55;0.70;;;25.90;99.30;;;;;;5020441;28;20887;-79
2023/06/15 08:29:51;;;;;;;2.13;0.90;;;26.10;99.20;;;;;;4989161;28;20467;-79
2023/06/15 08:32:16;;;;;;;5.25;1.42;;;25.90;98.70;;;;;;5006626;28;20670;-79
2023/06/15 08:34:43;;;;;;;2.80;1.05;;;25.30;98.50;;;;;;5005303;28;20031;-79
2023/06/15 08:37:11;;;;;;;1.73;0.80;;;25.60;99.20;;;;;;5035928;28;20038;-78
2023/06/15 08:39:38;;;;;;;1.90;0.57;;;26.20;96.90;;;;;;5005980;28;20376;-79
2023/06/15 08:42:04;;;;;;;1.40;0.60;;;26.20;97.00;;;;;;5033088;28;20040;-79
2023/06/15 08:44:31;;;;;;;3.58;1.05;;;26.60;97.20;;;;;;5007533;28;20450;-79
2023/06/15 08:47:00;;;;;;;1.55;0.70;;;26.30;97.60;;;;;;5004860;28;21024;-79
2023/06/15 08:49:26;;;;;;;3.22;0.60;;;26.80;96.40;;;;;;5019446;28;20372;-79
2023/06/15 08:51:54;;;;;;;1.95;0.80;;;26.60;96.00;;;;;;5000696;28;20030;-79
2023/06/15 08:54:21;;;;;;;3.10;1.05;;;26.20;96.80;;;;;;5017157;28;20034;-79
2023/06/15 08:56:47;;;;;;;2.05;1.00;;;26.10;97.10;;;;;;5000951;28;20025;-79
2023/06/15 08:59:12;;;;;;;2.95;0.88;;;25.90;98.40;;;;;;5015623;28;20043;-79
2023/06/15 09:01:41;;;;;;;1.25;0.70;;;26.50;96.10;;;;;;5000983;28;20474;-79
2023/06/15 09:04:07;;;;;;;1.43;0.50;;;26.60;96.00;;;;;;5002062;28;20033;-79
2023/06/15 09:06:33;;;;;;;2.20;0.60;;;27.20;96.80;;;;;;5006577;28;20018;-80
2023/06/15 09:08:59;;;;;;;3.28;0.60;;;27.10;96.40;;;;;;5007024;28;20470;-80
2023/06/15 09:11:26;;;;;;;1.90;0.57;;;26.90;95.70;;;;;;5035034;28;20026;-79
2023/06/15 09:13:54;;;;;;;2.10;0.70;;;27.00;96.60;;;;;;5002961;28;20124;-77
2023/06/15 09:16:19;;;;;;;2.42;1.10;;;26.50;96.20;;;;;;5002614;28;20088;-82
2023/06/15 09:18:51;;;;;;;3.58;0.85;;;25.70;96.70;;;;;;5004313;28;20037;-81
2023/06/15 09:21:22;;;;;;;3.00;0.70;;;26.10;97.10;;;;;;5016379;28;20061;-81
2023/06/15 09:23:48;;;;;;;2.75;0.80;;;26.60;96.80;;;;;;5002825;28;20114;-82
2023/06/15 09:26:27;;;;;;;2.58;0.60;;;26.40;96.90;;;;;;5003656;28;20161;-81
2023/06/15 09:28:57;;;;;;;2.28;0.68;;;27.50;96.70;;;;;;5006948;28;20037;-80
2023/06/15 09:31:34;;;;;;;2.63;0.50;;;27.40;95.40;;;;;;5031897;28;20032;-81
2023/06/15 09:34:04;;;;;;;2.33;0.65;;;27.10;95.80;;;;;;5035319;28;20046;-81
2023/06/15 09:36:35;;;;;;;2.30;0.60;;;27.90;95.20;;;;;;5034729;28;20501;-82
2023/06/15 09:39:03;;;;;;;0.93;0.50;;;28.20;94.20;;;;;;5001053;28;20065;-80
2023/06/15 09:41:28;;;;;;;1.52;0.60;;;28.10;94.30;;;;;;5005063;28;20026;-81
2023/06/15 09:43:54;;;;;;;1.88;0.60;;;28.00;95.30;;;;;;5016225;28;20025;-81
2023/06/15 09:46:20;;;;;;;2.35;0.50;;;28.00;94.20;;;;;;5003518;28;20034;-82
2023/06/15 09:48:47;;;;;;;1.25;0.50;;;27.80;94.40;;;;;;5002109;28;20034;-79
2023/06/15 09:51:13;;;;;;;1.00;0.40;;;28.60;93.50;;;;;;5001481;28;20108;-81
2023/06/15 09:53:42;;;;;;;2.63;0.50;;;28.50;93.30;;;;;;5002951;28;20092;-82
2023/06/15 09:56:09;;;;;;;2.97;0.43;;;28.00;94.00;;;;;;5003266;28;20060;-83
2023/06/15 09:58:35;;;;;;;1.85;0.50;;;28.10;93.90;;;;;;5017693;28;20045;-82
2023/06/15 10:01:04;;;;;;;1.50;0.40;;;28.60;93.00;;;;;;5000210;28;20026;-82
2023/06/15 10:03:33;;;;;;;;;;;28.80;93.20;;;;;;5002973;28;20044;-81
2023/06/15 10:06:15;;;;;;;3.03;0.50;;;28.20;92.70;;;;;;5005195;28;19971;-82
2023/06/15 10:08:41;;;;;;;3.53;0.50;;;27.40;92.80;;;;;;5004922;28;20029;-81
2023/06/15 10:11:09;;;;;;;1.00;0.40;;;27.40;92.60;;;;;;5034614;28;20120;-82
2023/06/15 10:14:09;;;;;;;3.05;0.43;;;28.30;93.40;;;;;;4991878;28;20037;-82
2023/06/15 10:16:36;;;;;;;2.47;0.45;;;28.40;92.60;;;;;;5016516;28;20038;-81
2023/06/15 10:19:05;;;;;;;3.17;0.52;;;28.20;92.60;;;;;;5000123;28;20037;-81
2023/06/15 10:21:36;;;;;;;2.05;0.50;;;27.80;92.20;;;;;;5013003;28;20062;-79
2023/06/15 10:24:08;;;;;;;1.42;0.50;;;27.60;92.60;;;;;;4986825;28;20026;-81
2023/06/15 10:26:34;;;;;;;1.58;0.43;;;28.00;92.90;;;;;;5006238;28;20084;-81
2023/06/15 10:29:08;;;;;;;1.50;0.45;;;28.80;91.70;;;;;;5004534;28;20526;-82
2023/06/15 10:31:49;;;;;;;3.28;0.40;;;28.80;91.70;;;;;;5001179;28;20034;-82
2023/06/15 10:34:39;;;;;;;1.10;0.40;;;28.80;91.00;;;;;;5008869;28;20042;-83
2023/06/15 10:37:30;;;;;;;2.05;0.40;;;29.60;91.40;;;;;;5001902;28;20451;-82
2023/06/15 10:40:05;;;;;;;3.22;0.50;;;29.00;91.20;;;;;;5007864;28;20474;-79
2023/06/15 10:42:47;;;;;;;1.55;0.40;;;27.60;91.70;;;;;;5020127;28;20489;-81
2023/06/15 10:45:33;;;;;;;1.00;0.40;;;27.00;92.00;;;;;;5004238;28;20038;-79
2023/06/15 10:48:01;;;;;;;1.88;0.40;;;26.50;92.70;;;;;;5008897;28;20041;-80
2023/06/15 10:50:38;;;;;;;1.98;0.40;;;26.30;92.80;;;;;;5005951;28;20200;-80
2023/06/15 10:53:03;;;;;;;1.70;0.57;;;26.50;92.40;;;;;;5010989;28;20490;-83
2023/06/15 10:55:30;;;;;;;1.20;0.50;;;27.50;92.30;;;;;;5009517;28;20058;-83
2023/06/15 10:58:16;;;;;;;2.40;0.60;;;27.90;91.00;;;;;;5002235;28;20037;-82
2023/06/15 11:01:03;;;;;;;1.58;0.45;;;28.10;92.00;;;;;;5003094;28;20034;-82
2023/06/15 11:03:32;;;;;;;2.08;0.50;;;28.70;90.80;;;;;;5018675;28;20026;-82
2023/06/15 11:06:07;;;;;;;1.52;0.30;;;29.20;91.30;;;;;;5010057;28;20458;-82
2023/06/15 11:08:59;;;;;;;0.90;0.35;;;29.20;90.20;;;;;;5005036;28;20076;-80
2023/06/15 11:11:39;;;;;;;1.80;0.40;;;29.10;90.60;;;;;;5008199;28;20550;-79
2023/06/15 11:14:21;;;;;;;1.95;0.40;;;29.10;90.40;;;;;;5035858;28;20034;-80
2023/06/15 11:17:04;;;;;;;0.85;0.40;;;29.40;90.40;;;;;;4987927;28;20121;-79
2023/06/15 11:19:30;;;;;;;1.42;0.50;;;28.80;90.40;;;;;;5019361;28;20089;-80
2023/06/15 11:22:06;;;;;;;2.13;0.50;;;28.00;91.20;;;;;;5006180;28;20042;-80
2023/06/15 11:24:39;;;;;;;3.13;0.40;;;29.00;90.80;;;;;;5019941;28;20053;-80
2023/06/15 11:27:06;;;;;;;1.45;0.40;;;29.20;87.40;;;;;;5005810;28;20026;-79
2023/06/15 11:29:37;;;;;;;2.35;0.50;;;28.90;88.50;;;;;;5017406;28;20140;-80
2023/06/15 11:32:04;;;;;;;0.93;0.30;;;28.20;90.40;;;;;;5003604;28;20126;-80
2023/06/15 11:34:31;;;;;;;1.35;0.50;;;28.70;90.10;;;;;;5009257;28;20425;-81
2023/06/15 11:36:58;;;;;;;1.00;0.40;;;28.50;89.40;;;;;;5005551;28;20033;-81
2023/06/15 11:39:26;;;;;;;0.90;0.40;;;29.50;90.00;;;;;;5005383;28;20025;-81
2023/06/15 11:41:53;;;;;;;1.65;0.30;;;29.70;88.80;;;;;;5007603;28;20097;-80
2023/06/15 11:44:21;;;;;;;1.38;0.50;;;29.50;87.80;;;;;;5005604;28;20030;-81
2023/06/15 11:46:56;;;;;;;0.88;0.40;;;29.10;90.00;;;;;;4988631;28;20541;-81
2023/06/15 11:49:22;;;;;;;2.20;0.40;;;28.30;89.10;;;;;;5007600;28;20490;-80
2023/06/15 11:51:48;;;;;;;1.35;0.40;;;28.70;89.10;;;;;;5006993;28;20041;-81
2023/06/15 11:54:15;;;;;;;1.27;0.50;;;28.00;90.20;;;;;;5007309;28;20481;-80
2023/06/15 11:56:47;;;;;;;2.47;0.60;;;28.30;90.10;;;;;;5003298;28;20387;-81
2023/06/15 11:59:15;;;;;;;1.42;0.50;;;27.80;89.30;;;;;;5009189;28;20061;-80
2023/06/15 12:01:42;;;;;;;1.20;0.40;;;27.80;90.30;;;;;;5038312;28;20022;-80
2023/06/15 12:04:12;;;;;;;1.15;0.55;;;28.30;90.60;;;;;;4992414;28;20457;-80
2023/06/15 12:06:40;;;;;;;2.05;0.40;;;28.40;91.00;;;;;;5017965;28;20398;-81
2023/06/15 12:09:07;;;;;;;1.73;0.50;;;28.80;90.10;;;;;;5016454;28;20030;-80
2023/06/15 12:11:34;;;;;;;3.13;0.50;;;28.10;90.00;;;;;;4995933;28;20041;-81
2023/06/15 12:14:08;;;;;;;1.45;0.70;;;29.10;89.40;;;;;;4994839;28;20065;-81
2023/06/15 12:16:36;;;;;;;1.13;0.40;;;29.00;89.90;;;;;;5007177;28;20048;-80
2023/06/15 12:19:04;;;;;;;2.55;0.50;;;28.50;85.70;;;;;;5007034;28;20042;-80
2023/06/15 12:21:32;;;;;;;1.77;0.30;;;28.10;87.50;;;;;;5018205;28;20050;-80
2023/06/15 12:23:59;;;;;;;3.65;0.40;;;28.70;86.00;;;;;;5036750;28;20018;-79
2023/06/15 12:26:32;;;;;;;1.53;0.40;;;28.70;87.20;;;;;;5022062;28;20133;-80
2023/06/15 12:28:58;;;;;;;2.40;0.40;;;28.50;87.30;;;;;;5004458;28;20288;-81
2023/06/15 12:31:32;;;;;;;2.05;0.40;;;28.00;86.40;;;;;;5003491;28;20371;-80
2023/06/15 12:33:58;;;;;;;1.10;0.40;;;28.40;87.40;;;;;;4985666;28;20065;-81
2023/06/15 12:36:28;;;;;;;1.63;0.50;;;28.70;87.50;;;;;;5006791;28;20050;-81
2023/06/15 12:38:55;;;;;;;3.10;0.60;;;28.00;87.70;;;;;;5015091;28;20096;-80
2023/06/15 12:41:20;;;;;;;3.08;0.40;;;27.30;88.20;;;;;;4998717;28;20033;-80
2023/06/15 12:43:46;;;;;;;2.15;0.40;;;27.80;88.70;;;;;;5004496;28;20048;-81
2023/06/15 12:46:12;;;;;;;0.85;0.40;;;28.20;88.30;;;;;;5002775;28;20038;-80
2023/06/15 12:48:38;;;;;;;1.85;0.40;;;29.10;88.10;;;;;;5007633;28;20482;-81
2023/06/15 12:51:04;;;;;;;1.38;0.40;;;29.40;87.60;;;;;;5007109;28;20113;-81
2023/06/15 12:53:30;;;;;;;1.73;0.50;;;28.60;86.20;;;;;;5034066;28;20372;-80